createdAt,value
2024-04-16T00:01:55.379Z,16.16
2024-04-16T00:04:22.895Z,16.14
2024-04-16T00:06:50.952Z,16.12
2024-04-16T00:09:17.750Z,16.08
2024-04-16T00:11:44.514Z,16.02
2024-04-16T00:14:11.098Z,16.05
2024-04-16T00:16:37.915Z,16.03
2024-04-16T00:19:04.723Z,16.01
2024-04-16T00:21:31.425Z,16.00
2024-04-16T00:23:58.200Z,15.98
2024-04-16T00:26:24.852Z,15.98
2024-04-16T00:28:51.517Z,15.95
2024-04-16T00:31:18.155Z,15.93
2024-04-16T00:33:45.051Z,15.92
2024-04-16T00:36:11.655Z,15.88
2024-04-16T00:38:38.273Z,15.88
2024-04-16T00:41:04.896Z,15.87
2024-04-16T00:43:31.549Z,15.85
2024-04-16T00:46:02.428Z,15.82
2024-04-16T00:48:29.786Z,15.81
2024-04-16T00:50:58.548Z,15.80
2024-04-16T00:53:26.866Z,15.78
2024-04-16T00:55:53.667Z,15.76
2024-04-16T00:58:21.418Z,15.75
2024-04-16T01:00:48.307Z,15.71
2024-04-16T01:03:15.458Z,15.69
2024-04-16T01:05:42.875Z,15.69
2024-04-16T01:08:10.462Z,15.67
2024-04-16T01:10:41.688Z,15.66
2024-04-16T01:13:09.213Z,15.64
2024-04-16T01:15:36.243Z,15.61
2024-04-16T01:18:04.716Z,15.60
2024-04-16T01:20:31.808Z,15.59
2024-04-16T01:22:58.447Z,15.56
2024-04-16T01:25:25.164Z,15.55
2024-04-16T01:27:51.836Z,15.54
2024-04-16T01:30:18.680Z,15.53
2024-04-16T01:32:45.362Z,15.51
2024-04-16T01:35:13.269Z,15.49
2024-04-16T01:37:40.277Z,15.49
2024-04-16T01:40:07.475Z,15.45
2024-04-16T01:42:34.135Z,15.46
2024-04-16T01:45:01.018Z,15.42
2024-04-16T01:47:28.576Z,15.38
2024-04-16T01:49:55.314Z,15.39
2024-04-16T01:52:21.982Z,15.38
2024-04-16T01:54:48.569Z,15.37
2024-04-16T01:57:15.200Z,15.34
2024-04-16T01:59:41.886Z,15.33
2024-04-16T02:02:09.127Z,15.32
2024-04-16T02:04:35.889Z,15.31
2024-04-16T02:07:02.645Z,15.30
2024-04-16T02:09:29.317Z,15.29
2024-04-16T02:11:55.931Z,15.25
2024-04-16T02:14:22.617Z,15.26
2024-04-16T02:16:49.284Z,15.25
2024-04-16T02:19:15.959Z,15.23
2024-04-16T02:21:42.592Z,15.22
2024-04-16T02:24:09.213Z,15.21
2024-04-16T02:26:35.816Z,15.19
2024-04-16T02:29:02.453Z,15.17
2024-04-16T02:31:31.636Z,15.16
2024-04-16T02:33:58.834Z,15.16
2024-04-16T02:36:25.530Z,15.14
2024-04-16T02:38:52.176Z,15.13
2024-04-16T02:41:18.868Z,15.12
2024-04-16T02:43:45.935Z,15.11
2024-04-16T02:46:12.726Z,15.09
2024-04-16T02:48:39.402Z,15.08
2024-04-16T02:51:06.001Z,15.05
2024-04-16T02:53:32.644Z,15.05
2024-04-16T02:55:59.243Z,15.04
2024-04-16T02:58:25.856Z,15.02
2024-04-16T03:00:52.524Z,15.00
2024-04-16T03:03:19.279Z,14.99
2024-04-16T03:05:45.993Z,14.97
2024-04-16T03:08:12.583Z,14.94
2024-04-16T03:10:40.601Z,14.94
2024-04-16T03:13:07.348Z,14.91
2024-04-16T03:15:34.003Z,14.91
2024-04-16T03:18:00.798Z,14.90
2024-04-16T03:20:27.578Z,14.89
2024-04-16T03:22:54.253Z,14.89
2024-04-16T03:25:21.043Z,14.89
2024-04-16T03:27:48.549Z,14.85
2024-04-16T03:30:15.183Z,14.85
2024-04-16T03:32:41.988Z,14.82
2024-04-16T03:35:12.059Z,14.81
2024-04-16T03:37:38.835Z,14.80
2024-04-16T03:40:09.016Z,14.78
2024-04-16T03:42:35.667Z,14.77
2024-04-16T03:45:02.320Z,14.73
2024-04-16T03:47:30.228Z,14.72
2024-04-16T03:49:56.870Z,14.71
2024-04-16T03:52:23.556Z,14.70
2024-04-16T03:54:50.171Z,14.70
2024-04-16T03:57:16.792Z,14.67
2024-04-16T04:00:01.971Z,14.66
2024-04-16T04:02:29.190Z,14.66
2024-04-16T04:04:55.965Z,14.63
2024-04-16T04:07:22.652Z,14.62
2024-04-16T04:09:50.153Z,14.60
2024-04-16T04:12:16.825Z,14.60
2024-04-16T04:14:44.338Z,14.58
2024-04-16T04:17:11.340Z,14.59
2024-04-16T04:19:38.418Z,14.57
2024-04-16T04:22:05.279Z,14.57
2024-04-16T04:24:34.839Z,14.54
2024-04-16T04:27:02.609Z,14.50
2024-04-16T04:29:31.134Z,14.52
2024-04-16T04:31:59.693Z,14.51
2024-04-16T04:34:27.135Z,14.49
2024-04-16T04:36:53.854Z,14.49
2024-04-16T04:39:21.172Z,14.44
2024-04-16T04:41:47.820Z,14.45
2024-04-16T04:44:14.477Z,14.41
2024-04-16T04:46:41.153Z,14.42
2024-04-16T04:49:07.910Z,14.40
2024-04-16T04:51:34.615Z,14.39
2024-04-16T04:54:01.576Z,14.37
2024-04-16T04:56:29.550Z,14.35
2024-04-16T04:58:56.247Z,14.32
2024-04-16T05:01:23.015Z,14.31
2024-04-16T05:03:49.748Z,14.31
2024-04-16T05:06:16.400Z,14.29
2024-04-16T05:08:42.986Z,14.27
2024-04-16T05:11:09.815Z,14.28
2024-04-16T05:13:36.578Z,14.26
2024-04-16T05:16:03.506Z,14.25
2024-04-16T05:18:30.254Z,14.23
2024-04-16T05:20:59.577Z,14.23
2024-04-16T05:23:27.585Z,14.22
2024-04-16T05:25:55.968Z,14.20
2024-04-16T05:28:22.999Z,14.18
2024-04-16T05:30:49.704Z,14.17
2024-04-16T05:33:16.396Z,14.15
2024-04-16T05:35:43.009Z,14.14
2024-04-16T05:38:09.632Z,14.13
2024-04-16T05:40:36.300Z,14.11
2024-04-16T05:43:03.036Z,14.10
2024-04-16T05:45:30.008Z,14.09
2024-04-16T05:47:56.940Z,14.06
2024-04-16T05:50:23.589Z,14.03
2024-04-16T05:52:50.408Z,14.03
2024-04-16T05:55:17.133Z,14.01
2024-04-16T05:57:43.756Z,14.02
2024-04-16T06:00:10.776Z,14.00
2024-04-16T06:02:37.393Z,13.98
2024-04-16T06:05:04.379Z,13.94
2024-04-16T06:07:31.067Z,13.95
2024-04-16T06:09:57.670Z,13.93
2024-04-16T06:12:24.353Z,13.93
2024-04-16T06:14:50.963Z,13.92
2024-04-16T06:17:17.599Z,13.90
2024-04-16T06:19:46.694Z,13.88
2024-04-16T06:22:13.551Z,13.87
2024-04-16T06:24:40.231Z,13.85
2024-04-16T06:27:06.892Z,13.84
2024-04-16T06:29:33.612Z,13.83
2024-04-16T06:32:00.341Z,13.81
2024-04-16T06:34:27.059Z,13.80
2024-04-16T06:36:53.727Z,13.78
2024-04-16T06:39:20.392Z,13.78
2024-04-16T06:41:46.970Z,13.75
2024-04-16T06:44:13.695Z,13.73
2024-04-16T06:46:40.433Z,13.72
2024-04-16T06:49:13.653Z,13.71
2024-04-16T06:51:44.922Z,13.70
2024-04-16T06:54:11.559Z,13.69
2024-04-16T06:56:38.234Z,13.67
2024-04-16T06:59:04.812Z,13.65
2024-04-16T07:01:31.489Z,13.66
2024-04-16T07:04:00.829Z,13.66
2024-04-16T07:06:28.089Z,13.63
2024-04-16T07:08:54.706Z,13.61
2024-04-16T07:11:21.397Z,13.62
2024-04-16T07:13:48.200Z,13.61
2024-04-16T07:16:14.902Z,13.60
2024-04-16T07:18:41.615Z,13.58
2024-04-16T07:21:08.320Z,13.58
2024-04-16T07:23:35.301Z,13.54
2024-04-16T07:26:03.911Z,13.53
2024-04-16T07:28:32.920Z,13.52
2024-04-16T07:31:06.149Z,13.49
2024-04-16T07:33:37.418Z,13.50
2024-04-16T07:36:10.583Z,13.48
2024-04-16T07:38:38.368Z,13.48
2024-04-16T07:41:05.190Z,13.44
2024-04-16T07:43:31.953Z,13.47
2024-04-16T07:45:58.635Z,13.44
2024-04-16T07:48:25.287Z,13.42
2024-04-16T07:50:52.050Z,13.41
2024-04-16T07:53:18.830Z,13.41
2024-04-16T07:55:45.631Z,13.40
2024-04-16T07:58:12.325Z,13.39
2024-04-16T08:00:40.836Z,13.39
2024-04-16T08:03:09.104Z,13.39
2024-04-16T08:05:37.524Z,13.35
2024-04-16T08:08:05.494Z,13.37
2024-04-16T08:10:33.238Z,13.36
2024-04-16T08:12:59.888Z,13.33
2024-04-16T08:15:26.527Z,13.33
2024-04-16T08:17:53.163Z,13.31
2024-04-16T08:20:19.778Z,13.31
2024-04-16T08:22:46.364Z,13.28
2024-04-16T08:25:13.103Z,13.27
2024-04-16T08:27:40.088Z,13.28
2024-04-16T08:30:07.321Z,13.28
2024-04-16T08:32:34.002Z,13.28
2024-04-16T08:35:00.792Z,13.27
2024-04-16T08:37:30.926Z,13.28
2024-04-16T08:39:57.728Z,13.26
2024-04-16T08:42:26.822Z,13.26
2024-04-16T08:44:55.260Z,13.25
2024-04-16T08:47:24.187Z,13.25
2024-04-16T08:49:52.524Z,13.20
2024-04-16T08:52:20.996Z,13.22
2024-04-16T08:54:50.593Z,13.20
2024-04-16T08:57:18.363Z,13.17
2024-04-16T08:59:44.942Z,13.19
2024-04-16T09:02:13.246Z,13.18
2024-04-16T09:04:41.369Z,13.17
2024-04-16T09:07:09.192Z,13.17
2024-04-16T09:09:36.406Z,13.16
2024-04-16T09:12:04.497Z,13.16
2024-04-16T09:14:31.997Z,13.14
2024-04-16T09:16:58.741Z,13.14
2024-04-16T09:19:28.536Z,13.15
2024-04-16T09:22:01.428Z,13.13
2024-04-16T09:24:28.086Z,13.13
2024-04-16T09:26:54.700Z,13.12
2024-04-16T09:29:26.142Z,13.12
2024-04-16T09:31:59.660Z,13.12
2024-04-16T09:34:26.472Z,13.12
2024-04-16T09:36:53.323Z,13.11
2024-04-16T09:39:21.540Z,13.08
2024-04-16T09:41:53.442Z,13.08
2024-04-16T09:44:20.761Z,13.07
2024-04-16T09:46:52.822Z,13.09
2024-04-16T09:49:23.780Z,13.09
2024-04-16T09:51:52.466Z,13.05
2024-04-16T09:54:20.532Z,13.06
2024-04-16T09:56:50.795Z,13.07
2024-04-16T09:59:17.976Z,13.07
2024-04-16T10:01:45.380Z,13.07
2024-04-16T10:04:12.923Z,13.07
2024-04-16T10:06:39.738Z,13.07
2024-04-16T10:09:06.823Z,13.06
2024-04-16T10:11:34.033Z,13.07
2024-04-16T10:14:01.798Z,13.07
2024-04-16T10:16:29.379Z,13.06
2024-04-16T10:18:57.319Z,13.07
2024-04-16T10:21:27.842Z,13.04
2024-04-16T10:24:07.874Z,13.04
2024-04-16T10:26:41.100Z,13.04
2024-04-16T10:29:18.955Z,13.04
2024-04-16T10:31:51.713Z,13.04
2024-04-16T10:34:21.937Z,13.03
2024-04-16T10:36:49.278Z,13.02
2024-04-16T10:39:16.476Z,13.01
2024-04-16T10:41:58.650Z,13.02
2024-04-16T10:44:25.888Z,13.01
2024-04-16T10:46:53.658Z,13.02
2024-04-16T10:49:23.989Z,13.02
2024-04-16T10:51:51.797Z,13.02
2024-04-16T10:54:18.849Z,13.01
2024-04-16T10:56:47.013Z,13.03
2024-04-16T10:59:14.160Z,13.03
2024-04-16T11:01:44.884Z,13.03
2024-04-16T11:04:13.273Z,13.03
2024-04-16T11:06:41.943Z,13.02
2024-04-16T11:09:09.345Z,13.02
2024-04-16T11:11:36.152Z,13.02
2024-04-16T11:14:03.142Z,13.02
2024-04-16T11:16:29.846Z,13.02
2024-04-16T11:19:00.006Z,13.01
2024-04-16T11:21:31.165Z,13.01
2024-04-16T11:23:58.748Z,13.01
2024-04-16T11:26:26.024Z,13.01
2024-04-16T11:28:52.990Z,12.99
2024-04-16T11:31:19.732Z,12.99
2024-04-16T11:33:47.873Z,12.99
2024-04-16T11:36:17.570Z,12.99
2024-04-16T11:38:44.652Z,12.96
2024-04-16T11:41:13.300Z,12.96
2024-04-16T11:43:43.095Z,12.98
2024-04-16T11:46:13.404Z,12.96
2024-04-16T11:48:40.321Z,12.95
2024-04-16T11:51:11.468Z,12.94
2024-04-16T11:53:39.433Z,12.93
2024-04-16T11:56:08.498Z,12.93
2024-04-16T11:58:37.136Z,12.94
2024-04-16T12:01:03.951Z,12.91
2024-04-16T12:03:30.697Z,12.92
2024-04-16T12:05:57.333Z,12.92
2024-04-16T12:08:24.019Z,12.90
2024-04-16T12:10:50.703Z,12.90
2024-04-16T12:13:17.450Z,12.90
2024-04-16T12:15:44.098Z,12.88
2024-04-16T12:18:11.269Z,12.88
2024-04-16T12:20:38.043Z,12.89
2024-04-16T12:23:04.821Z,12.89
2024-04-16T12:25:31.444Z,12.87
2024-04-16T12:27:58.056Z,12.88
2024-04-16T12:30:25.231Z,12.88
2024-04-16T12:32:58.438Z,12.87
2024-04-16T12:35:33.510Z,12.86
2024-04-16T12:38:00.711Z,12.84
2024-04-16T12:40:27.477Z,12.79
2024-04-16T12:42:54.167Z,12.75
2024-04-16T12:45:20.771Z,12.70
2024-04-16T12:47:47.474Z,12.67
2024-04-16T12:50:16.398Z,12.65
2024-04-16T12:52:43.250Z,12.61
2024-04-16T12:55:10.077Z,12.60
2024-04-16T12:57:36.945Z,12.56
2024-04-16T13:00:04.315Z,12.55
2024-04-16T13:02:31.017Z,12.53
2024-04-16T13:04:57.651Z,12.55
2024-04-16T13:07:24.298Z,12.54
2024-04-16T13:09:50.908Z,12.53
2024-04-16T13:12:17.654Z,12.54
2024-04-16T13:14:44.327Z,12.53
2024-04-16T13:17:10.945Z,12.52
2024-04-16T13:19:37.545Z,12.52
2024-04-16T13:22:06.893Z,12.52
2024-04-16T13:24:33.480Z,12.52
2024-04-16T13:27:00.140Z,12.52
2024-04-16T13:29:28.275Z,12.52
2024-04-16T13:31:54.975Z,12.51
2024-04-16T13:34:21.649Z,12.53
2024-04-16T13:36:48.410Z,12.55
2024-04-16T13:39:15.236Z,12.57
2024-04-16T13:41:41.898Z,12.58
2024-04-16T13:44:08.446Z,12.59
2024-04-16T13:46:35.249Z,12.61
2024-04-16T13:49:01.860Z,12.61
2024-04-16T13:51:28.527Z,12.61
2024-04-16T13:53:55.136Z,12.59
2024-04-16T13:56:21.725Z,12.62
2024-04-16T13:58:48.402Z,12.61
2024-04-16T14:01:15.180Z,12.61
2024-04-16T14:03:41.950Z,12.60
2024-04-16T14:06:08.672Z,12.58
2024-04-16T14:08:36.493Z,12.61
2024-04-16T14:11:04.007Z,12.59
2024-04-16T14:13:30.765Z,12.54
2024-04-16T14:15:57.416Z,12.56
2024-04-16T14:18:24.053Z,12.56
2024-04-16T14:20:50.662Z,12.52
2024-04-16T14:23:17.418Z,12.54
2024-04-16T14:25:44.109Z,12.59
2024-04-16T14:28:10.926Z,12.64
2024-04-16T14:30:37.552Z,12.61
2024-04-16T14:33:04.468Z,12.64
2024-04-16T14:35:31.199Z,12.67
2024-04-16T14:37:57.872Z,12.73
2024-04-16T14:40:24.588Z,12.79
2024-04-16T14:42:51.257Z,12.83
2024-04-16T14:45:20.018Z,12.86
2024-04-16T14:47:47.712Z,12.88
2024-04-16T14:50:14.702Z,12.92
2024-04-16T14:52:41.418Z,12.93
2024-04-16T14:55:08.090Z,12.97
2024-04-16T14:57:34.755Z,12.98
2024-04-16T15:00:01.365Z,13.01
2024-04-16T15:02:28.000Z,13.03
2024-04-16T15:04:54.715Z,13.04
2024-04-16T15:07:21.340Z,13.06
2024-04-16T15:09:47.994Z,13.06
2024-04-16T15:12:16.191Z,13.10
2024-04-16T15:14:43.036Z,13.12
2024-04-16T15:17:09.796Z,13.12
2024-04-16T15:19:36.526Z,13.15
2024-04-16T15:22:03.234Z,13.17
2024-04-16T15:24:29.850Z,13.17
2024-04-16T15:26:56.446Z,13.19
2024-04-16T15:29:23.115Z,13.20
2024-04-16T15:31:49.828Z,13.23
2024-04-16T15:34:16.538Z,13.23
2024-04-16T15:36:43.191Z,13.25
2024-04-16T15:39:09.846Z,13.26
2024-04-16T15:41:36.562Z,13.24
2024-04-16T15:44:03.196Z,13.28
2024-04-16T15:46:29.796Z,13.28
2024-04-16T15:48:56.815Z,13.31
2024-04-16T15:51:26.330Z,13.32
2024-04-16T15:53:53.228Z,13.31
2024-04-16T15:56:19.896Z,13.33
2024-04-16T15:58:46.800Z,13.33
2024-04-16T16:01:13.629Z,13.33
2024-04-16T16:03:40.529Z,13.37
2024-04-16T16:06:07.370Z,13.38
2024-04-16T16:08:33.978Z,13.39
2024-04-16T16:11:00.718Z,13.40
2024-04-16T16:13:27.432Z,13.41
2024-04-16T16:15:54.177Z,13.43
2024-04-16T16:18:20.913Z,13.44
2024-04-16T16:20:52.394Z,13.47
2024-04-16T16:23:19.258Z,13.45
2024-04-16T16:25:46.285Z,13.48
2024-04-16T16:28:13.073Z,13.45
2024-04-16T16:30:39.755Z,13.48
2024-04-16T16:33:06.412Z,13.49
2024-04-16T16:35:33.151Z,13.45
2024-04-16T16:37:59.827Z,13.50
2024-04-16T16:40:26.682Z,13.50
2024-04-16T16:42:54.349Z,13.51
2024-04-16T16:45:21.019Z,13.54
2024-04-16T16:47:47.791Z,13.54
2024-04-16T16:50:14.535Z,13.55
2024-04-16T16:52:41.194Z,13.54
2024-04-16T16:55:10.831Z,13.55
2024-04-16T16:57:37.441Z,13.59
2024-04-16T17:00:05.052Z,13.60
2024-04-16T17:02:31.786Z,13.64
2024-04-16T17:04:58.469Z,13.68
2024-04-16T17:07:25.197Z,13.68
2024-04-16T17:09:53.461Z,13.73
2024-04-16T17:12:21.308Z,13.73
2024-04-16T17:14:48.467Z,13.75
2024-04-16T17:17:15.627Z,13.78
2024-04-16T17:19:42.367Z,13.81
2024-04-16T17:22:09.013Z,13.84
2024-04-16T17:24:35.693Z,13.82
2024-04-16T17:27:02.328Z,13.84
2024-04-16T17:29:28.911Z,13.84
2024-04-16T17:31:55.955Z,13.85
2024-04-16T17:34:22.739Z,13.86
2024-04-16T17:36:51.084Z,13.91
2024-04-16T17:39:20.408Z,13.88
2024-04-16T17:41:47.008Z,13.91
2024-04-16T17:44:13.672Z,13.89
2024-04-16T17:46:41.584Z,13.93
2024-04-16T17:49:08.336Z,13.97
2024-04-16T17:51:34.977Z,13.98
2024-04-16T17:54:01.872Z,14.01
2024-04-16T17:57:24.102Z,14.04
2024-04-16T17:59:50.780Z,14.03
2024-04-16T18:02:17.685Z,14.05
2024-04-16T18:08:05.109Z,14.06
2024-04-16T18:10:31.920Z,14.03
2024-04-16T18:12:58.611Z,14.04
2024-04-16T18:15:25.495Z,14.06
2024-04-16T18:17:52.199Z,14.05
2024-04-16T18:20:18.900Z,14.08
2024-04-16T18:22:45.627Z,14.09
2024-04-16T18:25:12.245Z,14.09
2024-04-16T18:27:38.920Z,14.12
2024-04-16T18:30:06.139Z,14.12
2024-04-16T18:32:32.850Z,14.13
2024-04-16T18:34:59.475Z,14.13
2024-04-16T18:37:26.120Z,14.12
2024-04-16T18:39:52.743Z,14.10
2024-04-16T18:42:19.335Z,14.07
2024-04-16T18:44:47.785Z,14.09
2024-04-16T18:47:23.008Z,14.06
2024-04-16T18:49:50.085Z,14.07
2024-04-16T18:53:08.885Z,14.06
2024-04-16T18:55:35.519Z,14.07
2024-04-16T18:58:02.222Z,14.06
2024-04-16T19:00:28.987Z,14.06
2024-04-16T19:02:56.386Z,14.07
2024-04-16T19:05:59.220Z,14.03
2024-04-16T19:08:25.892Z,14.02
2024-04-16T19:10:52.735Z,14.02
2024-04-16T19:13:19.596Z,14.02
2024-04-16T19:15:56.300Z,13.99
2024-04-16T19:18:23.180Z,14.02
2024-04-16T19:20:49.938Z,14.01
2024-04-16T19:23:17.795Z,14.01
2024-04-16T19:25:44.564Z,14.02
2024-04-16T19:28:11.418Z,14.01
2024-04-16T19:30:38.996Z,14.00
2024-04-16T19:33:05.816Z,13.98
2024-04-16T19:35:32.561Z,13.97
2024-04-16T19:37:59.365Z,13.97
2024-04-16T19:40:26.158Z,13.95
2024-04-16T19:42:53.042Z,13.94
2024-04-16T19:45:19.870Z,13.96
2024-04-16T19:47:46.843Z,13.95
2024-04-16T19:50:13.643Z,13.93
2024-04-16T19:52:40.441Z,13.91
2024-04-16T19:55:07.644Z,13.89
2024-04-16T19:57:34.699Z,13.92
2024-04-16T20:00:04.418Z,13.94
2024-04-16T20:02:31.087Z,13.90
2024-04-16T20:04:57.839Z,13.89
2024-04-16T20:07:24.556Z,13.88
2024-04-16T20:09:51.748Z,13.90
2024-04-16T20:12:18.379Z,13.86
2024-04-16T20:14:46.117Z,13.85
2024-04-16T20:17:14.336Z,13.84
2024-04-16T20:19:41.093Z,13.84
2024-04-16T20:22:07.873Z,13.87
2024-04-16T20:24:34.656Z,13.86
2024-04-16T20:27:01.964Z,13.87
2024-04-16T20:29:28.777Z,13.86
2024-04-16T20:31:55.572Z,13.86
2024-04-16T20:34:23.472Z,13.81
2024-04-16T20:36:51.119Z,13.87
2024-04-16T20:39:18.098Z,13.83
2024-04-16T20:41:46.138Z,13.80
2024-04-16T20:44:12.791Z,13.78
2024-04-16T20:46:39.443Z,13.77
2024-04-16T20:49:06.041Z,13.81
2024-04-16T20:51:32.704Z,13.80
2024-04-16T20:53:59.351Z,13.76
2024-04-16T20:56:27.508Z,13.70
2024-04-16T20:58:54.154Z,13.69
2024-04-16T21:01:20.897Z,13.76
2024-04-16T21:03:47.602Z,13.75
2024-04-16T21:06:14.309Z,13.70
2024-04-16T21:08:41.384Z,13.70
2024-04-16T21:11:08.403Z,13.69
2024-04-16T21:13:36.344Z,13.69
2024-04-16T21:16:03.037Z,13.66
2024-04-16T21:18:29.774Z,13.66
2024-04-16T21:20:56.490Z,13.66
2024-04-16T21:23:23.324Z,13.64
2024-04-16T21:25:51.257Z,13.61
2024-04-16T21:28:18.207Z,13.58
2024-04-16T21:30:44.898Z,13.66
2024-04-16T21:33:11.548Z,13.68
2024-04-16T21:35:38.864Z,13.62
2024-04-16T21:38:05.578Z,13.61
2024-04-16T21:40:32.836Z,13.63
2024-04-16T21:42:59.545Z,13.58
2024-04-16T21:45:27.224Z,13.62
2024-04-16T21:47:53.985Z,13.60
2024-04-16T21:50:22.249Z,13.54
2024-04-16T21:52:48.995Z,13.58
2024-04-16T21:55:15.824Z,13.56
2024-04-16T21:57:42.504Z,13.54
2024-04-16T22:00:10.651Z,13.53
2024-04-16T22:02:37.339Z,13.53
2024-04-16T22:05:04.345Z,13.51
2024-04-16T22:07:31.076Z,13.49
2024-04-16T22:09:57.679Z,13.48
2024-04-16T22:12:24.311Z,13.47
2024-04-16T22:14:50.956Z,13.42
2024-04-16T22:17:17.606Z,13.43
2024-04-16T22:19:44.323Z,13.42
2024-04-16T22:22:10.973Z,13.41
2024-04-16T22:24:37.591Z,13.39
2024-04-16T22:27:04.547Z,13.37
2024-04-16T22:29:31.159Z,13.37
2024-04-16T22:31:59.585Z,13.35
2024-04-16T22:34:26.248Z,13.34
2024-04-16T22:36:52.907Z,13.34
2024-04-16T22:39:21.010Z,13.32
2024-04-16T22:41:47.796Z,13.32
2024-04-16T22:44:14.420Z,13.30
2024-04-16T22:46:41.100Z,13.28
2024-04-16T22:49:07.939Z,13.28
2024-04-16T22:51:34.568Z,13.28
2024-04-16T22:54:01.239Z,13.25
2024-04-16T22:56:27.862Z,13.25
2024-04-16T22:58:54.549Z,13.24
2024-04-16T23:01:21.451Z,13.22
2024-04-16T23:03:48.259Z,13.21
2024-04-16T23:06:15.025Z,13.20
2024-04-16T23:08:41.669Z,13.19
2024-04-16T23:11:08.504Z,13.16
2024-04-16T23:13:35.222Z,13.18
2024-04-16T23:16:01.879Z,13.15
2024-04-16T23:18:28.535Z,13.15
2024-04-16T23:20:55.254Z,13.14
2024-04-16T23:23:21.847Z,13.13
2024-04-16T23:25:48.510Z,13.12
2024-04-16T23:28:15.130Z,13.11
2024-04-16T23:30:41.755Z,13.10
2024-04-16T23:33:08.956Z,13.10
2024-04-16T23:35:36.344Z,13.06
2024-04-16T23:38:02.999Z,13.08
2024-04-16T23:40:29.669Z,13.06
2024-04-16T23:42:56.320Z,13.06
2024-04-16T23:45:22.994Z,13.05
2024-04-16T23:47:49.692Z,13.05
2024-04-16T23:50:16.362Z,13.04
2024-04-16T23:52:43.090Z,13.04
2024-04-16T23:55:09.812Z,13.03
2024-04-16T23:57:36.579Z,13.03
